LOG67TJ EGCC-EGNS
Flight info
| Callsign | LOG67TJ |
|---|---|
| Flight time | N/A |
| Altitude | 12000 |
| Route | ASMIM1S/05L ASMIM L975 WAL M146 LUSOD DCT IOM |
| Aircraft | AT76/M-SDFGIRY/S |
Departure
| Time | 2026-05-03 20:25 |
|---|---|
| Airport | Manchester Airport (EGCC) |
Arrival
| Time | N/A |
|---|---|
| Airport | Isle of Man Airport (EGNS) |
| Time | Latitude | Longitude | Altitude | Speed | Heading |
|---|---|---|---|---|---|
| 2026-05-03 20:15 | 53.35903 | -2.27318 | 232 ft | 0 kts | 179° |
| 2026-05-03 20:17 | 53.35883 | -2.27317 | 231 ft | 8 kts | 179° |
| 2026-05-03 20:17 | 53.35870 | -2.27317 | 229 ft | 0 kts | 179° |
| 2026-05-03 20:17 | 53.35831 | -2.27316 | 229 ft | 10 kts | 179° |
| 2026-05-03 20:18 | 53.35759 | -2.27384 | 229 ft | 15 kts | 231° |
| 2026-05-03 20:18 | 53.35685 | -2.27538 | 229 ft | 18 kts | 231° |
| 2026-05-03 20:18 | 53.35595 | -2.27697 | 229 ft | 20 kts | 224° |
| 2026-05-03 20:18 | 53.35494 | -2.27861 | 229 ft | 19 kts | 224° |
| 2026-05-03 20:19 | 53.35395 | -2.28022 | 229 ft | 21 kts | 224° |
| 2026-05-03 20:19 | 53.35290 | -2.28191 | 229 ft | 21 kts | 224° |
| 2026-05-03 20:19 | 53.35205 | -2.28355 | 229 ft | 15 kts | 232° |
| 2026-05-03 20:19 | 53.35132 | -2.28507 | 229 ft | 18 kts | 231° |
| 2026-05-03 20:20 | 53.35049 | -2.28679 | 229 ft | 20 kts | 230° |
| 2026-05-03 20:20 | 53.34961 | -2.28836 | 229 ft | 19 kts | 226° |
| 2026-05-03 20:20 | 53.34866 | -2.29000 | 229 ft | 18 kts | 227° |
| 2026-05-03 20:20 | 53.34785 | -2.29155 | 229 ft | 14 kts | 231° |
| 2026-05-03 20:21 | 53.34720 | -2.29287 | 229 ft | 12 kts | 223° |
| 2026-05-03 20:21 | 53.34670 | -2.29335 | 229 ft | 0 kts | 198° |
| 2026-05-03 20:22 | 53.34653 | -2.29342 | 231 ft | 8 kts | 188° |
| 2026-05-03 20:23 | 53.34578 | -2.29323 | 229 ft | 13 kts | 168° |
| 2026-05-03 20:23 | 53.34535 | -2.29238 | 229 ft | 7 kts | 71° |
| 2026-05-03 20:23 | 53.34550 | -2.29202 | 229 ft | 0 kts | 51° |
| 2026-05-03 20:24 | 53.34559 | -2.29183 | 230 ft | 20 kts | 51° |
| 2026-05-03 20:24 | 53.34830 | -2.28627 | 233 ft | 100 kts | 50° |
| 2026-05-03 20:24 | 53.35346 | -2.27617 | 668 ft | 120 kts | 46° |
| 2026-05-03 20:25 | 53.35934 | -2.26496 | 1261 ft | 135 kts | 47° |
| 2026-05-03 20:25 | 53.36547 | -2.25354 | 2079 ft | 130 kts | 51° |
| 2026-05-03 20:25 | 53.37090 | -2.24161 | 2893 ft | 127 kts | 53° |
| 2026-05-03 20:25 | 53.37618 | -2.22976 | 3672 ft | 127 kts | 52° |
| 2026-05-03 20:26 | 53.38162 | -2.21810 | 4254 ft | 128 kts | 49° |
| 2026-05-03 20:26 | 53.38951 | -2.21222 | 4731 ft | 135 kts | 348° |
| 2026-05-03 20:26 | 53.39827 | -2.21994 | 4935 ft | 159 kts | 330° |
| 2026-05-03 20:26 | 53.40823 | -2.23142 | 5113 ft | 185 kts | 318° |
| 2026-05-03 20:27 | 53.41631 | -2.24861 | 5525 ft | 190 kts | 307° |
| 2026-05-03 20:27 | 53.42378 | -2.26729 | 5991 ft | 194 kts | 303° |
| 2026-05-03 20:27 | 53.43052 | -2.28645 | 6521 ft | 191 kts | 300° |
| 2026-05-03 20:27 | 53.43671 | -2.30582 | 7098 ft | 188 kts | 297° |
| 2026-05-03 20:28 | 53.44267 | -2.32535 | 7578 ft | 189 kts | 297° |
| 2026-05-03 20:28 | 53.44863 | -2.34501 | 8076 ft | 190 kts | 296° |
| 2026-05-03 20:28 | 53.45451 | -2.36488 | 8547 ft | 191 kts | 296° |
| 2026-05-03 20:28 | 53.46052 | -2.38482 | 9028 ft | 192 kts | 296° |
| 2026-05-03 20:29 | 53.46660 | -2.40479 | 9494 ft | 193 kts | 296° |
| 2026-05-03 20:29 | 53.47193 | -2.42539 | 9923 ft | 194 kts | 278° |
| 2026-05-03 20:29 | 53.47058 | -2.44755 | 10291 ft | 194 kts | 257° |
| 2026-05-03 20:29 | 53.46757 | -2.46944 | 10677 ft | 195 kts | 256° |
| 2026-05-03 20:30 | 53.46447 | -2.49175 | 11069 ft | 197 kts | 257° |
| 2026-05-03 20:30 | 53.46145 | -2.51419 | 11465 ft | 198 kts | 257° |
| 2026-05-03 20:30 | 53.45856 | -2.53682 | 11863 ft | 199 kts | 258° |
| 2026-05-03 20:30 | 53.45573 | -2.56032 | 11981 ft | 215 kts | 259° |
| 2026-05-03 20:31 | 53.45308 | -2.58595 | 11999 ft | 231 kts | 260° |
| 2026-05-03 20:31 | 53.45028 | -2.61305 | 12020 ft | 241 kts | 260° |
| 2026-05-03 20:31 | 53.44735 | -2.64119 | 12037 ft | 248 kts | 260° |
| 2026-05-03 20:31 | 53.44435 | -2.66998 | 12060 ft | 253 kts | 260° |
| 2026-05-03 20:32 | 53.44124 | -2.69877 | 12084 ft | 256 kts | 259° |
| 2026-05-03 20:32 | 53.43799 | -2.72828 | 12081 ft | 259 kts | 259° |
| 2026-05-03 20:32 | 53.43468 | -2.75816 | 12074 ft | 261 kts | 259° |
| 2026-05-03 20:32 | 53.43136 | -2.78818 | 12068 ft | 263 kts | 259° |
| 2026-05-03 20:33 | 53.42797 | -2.81838 | 12064 ft | 264 kts | 259° |
| 2026-05-03 20:33 | 53.42459 | -2.84868 | 12057 ft | 265 kts | 259° |
| 2026-05-03 20:33 | 53.42116 | -2.87912 | 12051 ft | 265 kts | 259° |
| 2026-05-03 20:33 | 53.41776 | -2.90952 | 12045 ft | 266 kts | 259° |
| 2026-05-03 20:34 | 53.41440 | -2.93963 | 12037 ft | 266 kts | 259° |
| 2026-05-03 20:34 | 53.41095 | -2.97012 | 12038 ft | 267 kts | 259° |
| 2026-05-03 20:34 | 53.40751 | -3.00068 | 12030 ft | 267 kts | 259° |
| 2026-05-03 20:34 | 53.40403 | -3.03117 | 12019 ft | 267 kts | 259° |
| 2026-05-03 20:35 | 53.40060 | -3.06150 | 12013 ft | 263 kts | 259° |
| 2026-05-03 20:35 | 53.39720 | -3.09144 | 12009 ft | 261 kts | 259° |